sensor_id;sensor_type;location;lat;lon;timestamp;P1;durP1;ratioP1;P2;durP2;ratioP2
2157;SDS011;41972;48.774;9.282;2022-07-23T00:00:29;9.70;;;9.00;;
2157;SDS011;41972;48.774;9.282;2022-07-23T00:02:55;9.93;;;8.90;;
2157;SDS011;41972;48.774;9.282;2022-07-23T00:05:20;10.93;;;9.93;;
2157;SDS011;41972;48.774;9.282;2022-07-23T00:07:46;9.80;;;9.10;;
2157;SDS011;41972;48.774;9.282;2022-07-23T00:10:12;9.20;;;8.60;;
2157;SDS011;41972;48.774;9.282;2022-07-23T00:12:38;8.80;;;8.20;;
2157;SDS011;41972;48.774;9.282;2022-07-23T00:15:04;7.60;;;7.03;;
2157;SDS011;41972;48.774;9.282;2022-07-23T00:17:31;9.33;;;8.73;;
2157;SDS011;41972;48.774;9.282;2022-07-23T00:19:57;7.83;;;7.33;;
2157;SDS011;41972;48.774;9.282;2022-07-23T00:22:23;9.20;;;8.70;;
2157;SDS011;41972;48.774;9.282;2022-07-23T00:24:48;9.10;;;7.70;;
2157;SDS011;41972;48.774;9.282;2022-07-23T00:27:14;8.20;;;7.70;;
2157;SDS011;41972;48.774;9.282;2022-07-23T00:29:40;8.70;;;8.20;;
2157;SDS011;41972;48.774;9.282;2022-07-23T00:32:05;8.17;;;7.47;;
2157;SDS011;41972;48.774;9.282;2022-07-23T00:34:31;8.47;;;7.87;;
2157;SDS011;41972;48.774;9.282;2022-07-23T00:36:56;8.23;;;7.63;;
2157;SDS011;41972;48.774;9.282;2022-07-23T00:39:22;7.70;;;7.20;;
2157;SDS011;41972;48.774;9.282;2022-07-23T00:41:48;7.47;;;6.87;;
2157;SDS011;41972;48.774;9.282;2022-07-23T00:44:19;7.47;;;6.87;;
2157;SDS011;41972;48.774;9.282;2022-07-23T00:46:51;7.63;;;7.23;;
2157;SDS011;41972;48.774;9.282;2022-07-23T00:49:22;7.10;;;6.70;;
2157;SDS011;41972;48.774;9.282;2022-07-23T00:51:49;8.27;;;7.77;;
2157;SDS011;41972;48.774;9.282;2022-07-23T00:54:16;7.83;;;7.33;;
2157;SDS011;41972;48.774;9.282;2022-07-23T00:56:44;7.00;;;6.50;;
2157;SDS011;41972;48.774;9.282;2022-07-23T00:59:11;6.23;;;5.53;;
2157;SDS011;41972;48.774;9.282;2022-07-23T01:01:37;6.17;;;5.77;;
2157;SDS011;41972;48.774;9.282;2022-07-23T01:04:03;6.70;;;6.20;;
2157;SDS011;41972;48.774;9.282;2022-07-23T01:06:31;6.97;;;6.37;;
2157;SDS011;41972;48.774;9.282;2022-07-23T01:09:00;5.93;;;5.53;;
2157;SDS011;41972;48.774;9.282;2022-07-23T01:11:26;6.50;;;6.10;;
2157;SDS011;41972;48.774;9.282;2022-07-23T01:13:52;7.37;;;6.87;;
2157;SDS011;41972;48.774;9.282;2022-07-23T01:16:18;6.60;;;6.10;;
2157;SDS011;41972;48.774;9.282;2022-07-23T01:18:44;6.33;;;5.83;;
2157;SDS011;41972;48.774;9.282;2022-07-23T01:21:10;6.53;;;6.03;;
2157;SDS011;41972;48.774;9.282;2022-07-23T01:23:40;8.70;;;8.20;;
2157;SDS011;41972;48.774;9.282;2022-07-23T01:26:06;6.70;;;6.30;;
2157;SDS011;41972;48.774;9.282;2022-07-23T01:28:31;8.03;;;7.33;;
2157;SDS011;41972;48.774;9.282;2022-07-23T01:30:57;7.40;;;6.90;;
2157;SDS011;41972;48.774;9.282;2022-07-23T01:33:23;7.40;;;6.70;;
2157;SDS011;41972;48.774;9.282;2022-07-23T01:35:48;7.13;;;6.73;;
2157;SDS011;41972;48.774;9.282;2022-07-23T01:38:14;6.83;;;6.30;;
2157;SDS011;41972;48.774;9.282;2022-07-23T01:40:39;8.47;;;7.90;;
2157;SDS011;41972;48.774;9.282;2022-07-23T01:43:05;9.07;;;8.23;;
2157;SDS011;41972;48.774;9.282;2022-07-23T01:45:31;5.90;;;5.50;;
2157;SDS011;41972;48.774;9.282;2022-07-23T01:47:57;10.60;;;10.00;;
2157;SDS011;41972;48.774;9.282;2022-07-23T01:50:22;16.23;;;15.43;;
2157;SDS011;41972;48.774;9.282;2022-07-23T01:52:48;11.77;;;11.13;;
2157;SDS011;41972;48.774;9.282;2022-07-23T01:55:14;12.17;;;11.47;;
2157;SDS011;41972;48.774;9.282;2022-07-23T01:57:39;12.90;;;12.30;;
2157;SDS011;41972;48.774;9.282;2022-07-23T02:00:05;20.30;;;19.50;;
2157;SDS011;41972;48.774;9.282;2022-07-23T02:02:31;14.57;;;13.97;;
2157;SDS011;41972;48.774;9.282;2022-07-23T02:04:57;16.43;;;15.50;;
2157;SDS011;41972;48.774;9.282;2022-07-23T02:07:22;7.70;;;7.00;;
2157;SDS011;41972;48.774;9.282;2022-07-23T02:09:48;9.87;;;9.37;;
2157;SDS011;41972;48.774;9.282;2022-07-23T02:12:13;17.83;;;17.00;;
2157;SDS011;41972;48.774;9.282;2022-07-23T02:14:39;8.60;;;8.10;;
2157;SDS011;41972;48.774;9.282;2022-07-23T02:17:04;12.20;;;11.60;;
2157;SDS011;41972;48.774;9.282;2022-07-23T02:19:30;9.03;;;8.30;;
2157;SDS011;41972;48.774;9.282;2022-07-23T02:21:55;9.30;;;8.73;;
2157;SDS011;41972;48.774;9.282;2022-07-23T02:24:21;9.20;;;8.60;;
2157;SDS011;41972;48.774;9.282;2022-07-23T02:26:47;22.90;;;21.90;;
2157;SDS011;41972;48.774;9.282;2022-07-23T02:29:12;10.53;;;9.97;;
2157;SDS011;41972;48.774;9.282;2022-07-23T02:31:38;11.50;;;10.90;;
2157;SDS011;41972;48.774;9.282;2022-07-23T02:34:03;8.47;;;7.60;;
2157;SDS011;41972;48.774;9.282;2022-07-23T02:36:29;13.87;;;13.20;;
2157;SDS011;41972;48.774;9.282;2022-07-23T02:38:55;9.30;;;8.50;;
2157;SDS011;41972;48.774;9.282;2022-07-23T02:41:21;7.40;;;6.70;;
2157;SDS011;41972;48.774;9.282;2022-07-23T02:43:46;13.37;;;12.57;;
2157;SDS011;41972;48.774;9.282;2022-07-23T02:46:12;13.87;;;13.07;;
2157;SDS011;41972;48.774;9.282;2022-07-23T02:48:37;11.83;;;11.13;;
2157;SDS011;41972;48.774;9.282;2022-07-23T02:51:03;12.63;;;11.93;;
2157;SDS011;41972;48.774;9.282;2022-07-23T02:53:29;10.70;;;9.80;;
2157;SDS011;41972;48.774;9.282;2022-07-23T02:55:54;16.53;;;15.73;;
2157;SDS011;41972;48.774;9.282;2022-07-23T02:58:20;10.20;;;9.50;;
2157;SDS011;41972;48.774;9.282;2022-07-23T03:00:46;10.63;;;9.80;;
2157;SDS011;41972;48.774;9.282;2022-07-23T03:03:12;11.33;;;10.63;;
2157;SDS011;41972;48.774;9.282;2022-07-23T03:05:37;14.27;;;13.57;;
2157;SDS011;41972;48.774;9.282;2022-07-23T03:08:03;13.13;;;12.23;;
2157;SDS011;41972;48.774;9.282;2022-07-23T03:10:29;11.60;;;10.90;;
2157;SDS011;41972;48.774;9.282;2022-07-23T03:12:54;16.23;;;15.27;;
2157;SDS011;41972;48.774;9.282;2022-07-23T03:15:20;12.80;;;11.87;;
2157;SDS011;41972;48.774;9.282;2022-07-23T03:17:45;16.20;;;15.30;;
2157;SDS011;41972;48.774;9.282;2022-07-23T03:20:11;13.03;;;12.23;;
2157;SDS011;41972;48.774;9.282;2022-07-23T03:22:36;16.87;;;15.97;;
2157;SDS011;41972;48.774;9.282;2022-07-23T03:25:02;15.30;;;14.40;;
2157;SDS011;41972;48.774;9.282;2022-07-23T03:27:28;15.37;;;14.37;;
2157;SDS011;41972;48.774;9.282;2022-07-23T03:29:57;11.70;;;10.80;;
2157;SDS011;41972;48.774;9.282;2022-07-23T03:32:24;8.83;;;8.23;;
2157;SDS011;41972;48.774;9.282;2022-07-23T03:34:50;11.80;;;11.20;;
2157;SDS011;41972;48.774;9.282;2022-07-23T03:37:16;9.60;;;9.10;;
2157;SDS011;41972;48.774;9.282;2022-07-23T03:39:43;12.83;;;12.03;;
2157;SDS011;41972;48.774;9.282;2022-07-23T03:42:09;12.03;;;11.23;;
2157;SDS011;41972;48.774;9.282;2022-07-23T03:44:34;11.30;;;10.73;;
2157;SDS011;41972;48.774;9.282;2022-07-23T03:47:01;17.10;;;16.03;;
2157;SDS011;41972;48.774;9.282;2022-07-23T03:49:28;12.93;;;12.13;;
2157;SDS011;41972;48.774;9.282;2022-07-23T03:51:53;14.90;;;14.10;;
2157;SDS011;41972;48.774;9.282;2022-07-23T03:54:19;13.07;;;12.37;;
2157;SDS011;41972;48.774;9.282;2022-07-23T03:56:44;14.40;;;13.60;;
2157;SDS011;41972;48.774;9.282;2022-07-23T03:59:10;13.33;;;12.53;;
2157;SDS011;41972;48.774;9.282;2022-07-23T04:01:35;10.47;;;9.63;;
2157;SDS011;41972;48.774;9.282;2022-07-23T04:04:01;12.33;;;11.63;;
2157;SDS011;41972;48.774;9.282;2022-07-23T04:06:27;10.37;;;9.77;;
2157;SDS011;41972;48.774;9.282;2022-07-23T04:08:53;11.37;;;10.57;;
2157;SDS011;41972;48.774;9.282;2022-07-23T04:11:18;8.50;;;7.90;;
2157;SDS011;41972;48.774;9.282;2022-07-23T04:13:44;16.80;;;15.90;;
2157;SDS011;41972;48.774;9.282;2022-07-23T04:16:10;10.20;;;9.30;;
2157;SDS011;41972;48.774;9.282;2022-07-23T04:18:35;9.33;;;8.83;;
2157;SDS011;41972;48.774;9.282;2022-07-23T04:21:01;17.23;;;16.23;;
2157;SDS011;41972;48.774;9.282;2022-07-23T04:23:26;19.03;;;18.03;;
2157;SDS011;41972;48.774;9.282;2022-07-23T04:25:52;13.60;;;12.87;;
2157;SDS011;41972;48.774;9.282;2022-07-23T04:28:18;10.47;;;9.77;;
2157;SDS011;41972;48.774;9.282;2022-07-23T04:30:43;10.67;;;9.97;;
2157;SDS011;41972;48.774;9.282;2022-07-23T04:33:09;12.53;;;11.83;;
2157;SDS011;41972;48.774;9.282;2022-07-23T04:35:35;11.10;;;10.40;;
2157;SDS011;41972;48.774;9.282;2022-07-23T04:38:02;11.50;;;10.47;;
2157;SDS011;41972;48.774;9.282;2022-07-23T04:40:28;11.90;;;11.20;;
2157;SDS011;41972;48.774;9.282;2022-07-23T04:42:54;13.60;;;12.90;;
2157;SDS011;41972;48.774;9.282;2022-07-23T04:45:20;10.30;;;9.70;;
2157;SDS011;41972;48.774;9.282;2022-07-23T04:47:46;9.63;;;8.63;;
2157;SDS011;41972;48.774;9.282;2022-07-23T04:50:12;14.00;;;13.10;;
2157;SDS011;41972;48.774;9.282;2022-07-23T04:52:38;11.07;;;10.30;;
2157;SDS011;41972;48.774;9.282;2022-07-23T04:55:03;9.43;;;8.93;;
2157;SDS011;41972;48.774;9.282;2022-07-23T04:57:29;16.90;;;16.00;;
2157;SDS011;41972;48.774;9.282;2022-07-23T04:59:55;12.73;;;12.00;;
2157;SDS011;41972;48.774;9.282;2022-07-23T05:02:21;12.03;;;11.30;;
2157;SDS011;41972;48.774;9.282;2022-07-23T05:04:46;11.00;;;10.40;;
2157;SDS011;41972;48.774;9.282;2022-07-23T05:07:12;13.27;;;12.63;;
2157;SDS011;41972;48.774;9.282;2022-07-23T05:09:37;11.43;;;10.73;;
2157;SDS011;41972;48.774;9.282;2022-07-23T05:12:03;14.50;;;13.70;;
2157;SDS011;41972;48.774;9.282;2022-07-23T05:14:29;35.37;;;33.90;;
2157;SDS011;41972;48.774;9.282;2022-07-23T05:16:54;14.00;;;13.30;;
2157;SDS011;41972;48.774;9.282;2022-07-23T05:19:20;15.77;;;14.97;;
2157;SDS011;41972;48.774;9.282;2022-07-23T05:21:46;14.87;;;14.07;;
2157;SDS011;41972;48.774;9.282;2022-07-23T05:24:12;16.50;;;15.60;;
2157;SDS011;41972;48.774;9.282;2022-07-23T05:26:38;12.40;;;11.70;;
2157;SDS011;41972;48.774;9.282;2022-07-23T05:29:04;14.27;;;13.47;;
2157;SDS011;41972;48.774;9.282;2022-07-23T05:31:29;12.77;;;12.00;;
2157;SDS011;41972;48.774;9.282;2022-07-23T05:33:55;14.00;;;13.20;;
2157;SDS011;41972;48.774;9.282;2022-07-23T05:36:20;12.80;;;12.00;;
2157;SDS011;41972;48.774;9.282;2022-07-23T05:38:46;15.60;;;14.70;;
2157;SDS011;41972;48.774;9.282;2022-07-23T05:41:11;13.63;;;12.80;;
2157;SDS011;41972;48.774;9.282;2022-07-23T05:43:37;12.77;;;11.73;;
2157;SDS011;41972;48.774;9.282;2022-07-23T05:46:02;12.07;;;11.17;;
2157;SDS011;41972;48.774;9.282;2022-07-23T05:48:28;12.27;;;11.57;;
2157;SDS011;41972;48.774;9.282;2022-07-23T05:50:53;10.07;;;9.33;;
2157;SDS011;41972;48.774;9.282;2022-07-23T05:53:19;15.43;;;14.53;;
2157;SDS011;41972;48.774;9.282;2022-07-23T05:55:45;10.07;;;9.30;;
2157;SDS011;41972;48.774;9.282;2022-07-23T05:58:11;9.60;;;8.90;;
2157;SDS011;41972;48.774;9.282;2022-07-23T06:00:36;10.40;;;9.60;;
2157;SDS011;41972;48.774;9.282;2022-07-23T06:03:02;12.97;;;12.27;;
2157;SDS011;41972;48.774;9.282;2022-07-23T06:05:27;13.40;;;12.60;;
2157;SDS011;41972;48.774;9.282;2022-07-23T06:07:54;14.87;;;13.77;;
2157;SDS011;41972;48.774;9.282;2022-07-23T06:10:20;13.33;;;12.60;;
2157;SDS011;41972;48.774;9.282;2022-07-23T06:12:46;11.50;;;10.80;;
2157;SDS011;41972;48.774;9.282;2022-07-23T06:15:12;16.80;;;15.57;;
2157;SDS011;41972;48.774;9.282;2022-07-23T06:17:38;14.77;;;13.70;;
2157;SDS011;41972;48.774;9.282;2022-07-23T06:20:04;14.77;;;14.07;;
2157;SDS011;41972;48.774;9.282;2022-07-23T06:22:34;11.73;;;11.03;;
2157;SDS011;41972;48.774;9.282;2022-07-23T06:25:00;12.17;;;11.47;;
2157;SDS011;41972;48.774;9.282;2022-07-23T06:27:26;14.60;;;13.80;;
2157;SDS011;41972;48.774;9.282;2022-07-23T06:29:51;11.30;;;10.60;;
2157;SDS011;41972;48.774;9.282;2022-07-23T06:32:17;11.83;;;11.00;;
2157;SDS011;41972;48.774;9.282;2022-07-23T06:34:43;13.63;;;12.70;;
2157;SDS011;41972;48.774;9.282;2022-07-23T06:37:08;10.07;;;9.37;;
2157;SDS011;41972;48.774;9.282;2022-07-23T06:39:34;23.67;;;22.47;;
2157;SDS011;41972;48.774;9.282;2022-07-23T06:41:59;18.00;;;16.93;;
2157;SDS011;41972;48.774;9.282;2022-07-23T06:44:27;14.77;;;13.97;;
2157;SDS011;41972;48.774;9.282;2022-07-23T06:46:53;13.57;;;12.87;;
2157;SDS011;41972;48.774;9.282;2022-07-23T06:49:18;22.30;;;21.27;;
2157;SDS011;41972;48.774;9.282;2022-07-23T06:51:44;11.00;;;10.30;;
2157;SDS011;41972;48.774;9.282;2022-07-23T06:54:10;10.17;;;9.57;;
2157;SDS011;41972;48.774;9.282;2022-07-23T06:56:35;8.87;;;8.17;;
2157;SDS011;41972;48.774;9.282;2022-07-23T06:59:01;10.60;;;9.83;;
2157;SDS011;41972;48.774;9.282;2022-07-23T07:01:27;11.13;;;10.43;;
2157;SDS011;41972;48.774;9.282;2022-07-23T07:03:53;10.90;;;10.10;;
2157;SDS011;41972;48.774;9.282;2022-07-23T07:06:19;11.80;;;11.00;;
2157;SDS011;41972;48.774;9.282;2022-07-23T07:08:45;10.60;;;9.70;;
2157;SDS011;41972;48.774;9.282;2022-07-23T07:11:11;11.07;;;10.40;;
2157;SDS011;41972;48.774;9.282;2022-07-23T07:13:36;15.00;;;11.47;;
2157;SDS011;41972;48.774;9.282;2022-07-23T07:16:03;10.23;;;9.00;;
2157;SDS011;41972;48.774;9.282;2022-07-23T07:18:29;10.20;;;9.40;;
2157;SDS011;41972;48.774;9.282;2022-07-23T07:20:54;11.50;;;10.60;;
2157;SDS011;41972;48.774;9.282;2022-07-23T07:23:21;10.50;;;9.80;;
2157;SDS011;41972;48.774;9.282;2022-07-23T07:25:46;12.00;;;11.10;;
2157;SDS011;41972;48.774;9.282;2022-07-23T07:28:12;14.33;;;13.03;;
2157;SDS011;41972;48.774;9.282;2022-07-23T07:30:38;12.77;;;12.00;;
2157;SDS011;41972;48.774;9.282;2022-07-23T07:33:04;10.63;;;9.83;;
2157;SDS011;41972;48.774;9.282;2022-07-23T07:35:29;10.80;;;9.80;;
2157;SDS011;41972;48.774;9.282;2022-07-23T07:37:57;11.23;;;10.37;;
2157;SDS011;41972;48.774;9.282;2022-07-23T07:40:24;10.40;;;9.60;;
2157;SDS011;41972;48.774;9.282;2022-07-23T07:42:51;9.77;;;9.07;;
2157;SDS011;41972;48.774;9.282;2022-07-23T07:45:19;10.43;;;9.50;;
2157;SDS011;41972;48.774;9.282;2022-07-23T07:47:46;11.77;;;11.07;;
2157;SDS011;41972;48.774;9.282;2022-07-23T07:50:12;10.83;;;10.13;;
2157;SDS011;41972;48.774;9.282;2022-07-23T07:52:38;10.97;;;10.27;;
2157;SDS011;41972;48.774;9.282;2022-07-23T07:55:04;9.83;;;9.23;;
2157;SDS011;41972;48.774;9.282;2022-07-23T07:57:31;10.97;;;9.97;;
2157;SDS011;41972;48.774;9.282;2022-07-23T07:59:57;20.83;;;19.67;;
2157;SDS011;41972;48.774;9.282;2022-07-23T08:02:23;16.70;;;15.70;;
2157;SDS011;41972;48.774;9.282;2022-07-23T08:04:49;16.53;;;15.73;;
2157;SDS011;41972;48.774;9.282;2022-07-23T08:07:15;13.33;;;12.53;;
2157;SDS011;41972;48.774;9.282;2022-07-23T08:09:40;11.70;;;11.00;;
2157;SDS011;41972;48.774;9.282;2022-07-23T08:12:06;11.50;;;10.80;;
2157;SDS011;41972;48.774;9.282;2022-07-23T08:14:32;35.40;;;33.67;;
2157;SDS011;41972;48.774;9.282;2022-07-23T08:16:58;11.60;;;10.83;;
2157;SDS011;41972;48.774;9.282;2022-07-23T08:19:24;28.07;;;26.40;;
2157;SDS011;41972;48.774;9.282;2022-07-23T08:21:49;27.93;;;26.23;;
2157;SDS011;41972;48.774;9.282;2022-07-23T08:24:15;15.80;;;14.80;;
2157;SDS011;41972;48.774;9.282;2022-07-23T08:26:40;19.00;;;18.00;;
2157;SDS011;41972;48.774;9.282;2022-07-23T08:29:06;18.77;;;17.53;;
2157;SDS011;41972;48.774;9.282;2022-07-23T08:31:32;20.40;;;18.80;;
2157;SDS011;41972;48.774;9.282;2022-07-23T08:33:58;25.00;;;24.00;;
2157;SDS011;41972;48.774;9.282;2022-07-23T08:36:24;22.67;;;21.67;;
2157;SDS011;41972;48.774;9.282;2022-07-23T08:38:52;24.80;;;23.73;;
2157;SDS011;41972;48.774;9.282;2022-07-23T08:41:18;17.77;;;16.97;;
2157;SDS011;41972;48.774;9.282;2022-07-23T08:43:44;16.60;;;15.70;;
2157;SDS011;41972;48.774;9.282;2022-07-23T08:46:10;35.40;;;33.93;;
2157;SDS011;41972;48.774;9.282;2022-07-23T08:48:38;30.53;;;29.23;;
2157;SDS011;41972;48.774;9.282;2022-07-23T08:51:04;23.67;;;22.63;;
2157;SDS011;41972;48.774;9.282;2022-07-23T08:53:31;19.27;;;18.27;;
2157;SDS011;41972;48.774;9.282;2022-07-23T08:55:59;12.07;;;11.37;;
2157;SDS011;41972;48.774;9.282;2022-07-23T08:58:29;19.40;;;18.40;;
2157;SDS011;41972;48.774;9.282;2022-07-23T09:00:55;9.80;;;9.23;;
2157;SDS011;41972;48.774;9.282;2022-07-23T09:03:22;10.30;;;9.60;;
2157;SDS011;41972;48.774;9.282;2022-07-23T09:05:50;11.70;;;10.80;;
2157;SDS011;41972;48.774;9.282;2022-07-23T09:08:18;13.80;;;12.90;;
2157;SDS011;41972;48.774;9.282;2022-07-23T09:13:25;9.47;;;8.87;;
2157;SDS011;41972;48.774;9.282;2022-07-23T09:15:56;9.97;;;9.37;;
2157;SDS011;41972;48.774;9.282;2022-07-23T09:18:52;9.40;;;8.80;;
2157;SDS011;41972;48.774;9.282;2022-07-23T09:21:38;8.27;;;7.73;;
2157;SDS011;41972;48.774;9.282;2022-07-23T09:24:08;13.30;;;12.60;;
2157;SDS011;41972;48.774;9.282;2022-07-23T09:26:36;9.20;;;8.50;;
2157;SDS011;41972;48.774;9.282;2022-07-23T09:29:18;9.00;;;8.40;;
2157;SDS011;41972;48.774;9.282;2022-07-23T09:31:49;7.00;;;6.50;;
2157;SDS011;41972;48.774;9.282;2022-07-23T09:34:26;7.87;;;7.37;;
2157;SDS011;41972;48.774;9.282;2022-07-23T09:36:55;7.67;;;7.10;;
2157;SDS011;41972;48.774;9.282;2022-07-23T09:39:34;7.97;;;7.47;;
2157;SDS011;41972;48.774;9.282;2022-07-23T09:44:45;9.00;;;8.50;;
2157;SDS011;41972;48.774;9.282;2022-07-23T09:47:14;15.20;;;14.40;;
2157;SDS011;41972;48.774;9.282;2022-07-23T09:49:40;12.37;;;11.57;;
2157;SDS011;41972;48.774;9.282;2022-07-23T09:52:32;16.13;;;15.50;;
2157;SDS011;41972;48.774;9.282;2022-07-23T09:55:00;7.93;;;7.43;;
2157;SDS011;41972;48.774;9.282;2022-07-23T09:57:26;11.23;;;10.20;;
2157;SDS011;41972;48.774;9.282;2022-07-23T09:59:53;7.57;;;7.00;;
2157;SDS011;41972;48.774;9.282;2022-07-23T10:02:25;8.70;;;8.00;;
2157;SDS011;41972;48.774;9.282;2022-07-23T10:04:52;8.17;;;7.70;;
2157;SDS011;41972;48.774;9.282;2022-07-23T10:07:20;11.47;;;10.70;;
2157;SDS011;41972;48.774;9.282;2022-07-23T10:09:48;7.57;;;7.07;;
2157;SDS011;41972;48.774;9.282;2022-07-23T10:12:17;10.03;;;9.43;;
2157;SDS011;41972;48.774;9.282;2022-07-23T10:14:45;10.10;;;9.40;;
2157;SDS011;41972;48.774;9.282;2022-07-23T10:17:12;9.43;;;8.17;;
2157;SDS011;41972;48.774;9.282;2022-07-23T10:19:37;7.47;;;6.97;;
2157;SDS011;41972;48.774;9.282;2022-07-23T10:22:04;8.70;;;8.00;;
2157;SDS011;41972;48.774;9.282;2022-07-23T10:27:20;9.23;;;8.40;;
2157;SDS011;41972;48.774;9.282;2022-07-23T10:30:16;7.43;;;7.03;;
2157;SDS011;41972;48.774;9.282;2022-07-23T10:32:56;8.90;;;8.30;;
2157;SDS011;41972;48.774;9.282;2022-07-23T10:35:37;9.13;;;8.53;;
2157;SDS011;41972;48.774;9.282;2022-07-23T10:38:24;9.17;;;8.57;;
2157;SDS011;41972;48.774;9.282;2022-07-23T10:41:02;12.00;;;11.20;;
2157;SDS011;41972;48.774;9.282;2022-07-23T10:43:29;10.40;;;9.67;;
2157;SDS011;41972;48.774;9.282;2022-07-23T10:45:56;11.10;;;10.50;;
2157;SDS011;41972;48.774;9.282;2022-07-23T10:49:29;11.67;;;10.97;;
2157;SDS011;41972;48.774;9.282;2022-07-23T10:54:49;13.70;;;13.10;;
2157;SDS011;41972;48.774;9.282;2022-07-23T10:57:16;11.87;;;11.27;;
2157;SDS011;41972;48.774;9.282;2022-07-23T11:02:34;12.97;;;12.17;;
2157;SDS011;41972;48.774;9.282;2022-07-23T11:05:03;16.10;;;15.20;;
2157;SDS011;41972;48.774;9.282;2022-07-23T11:07:30;14.43;;;13.63;;
2157;SDS011;41972;48.774;9.282;2022-07-23T11:09:56;19.17;;;18.20;;
2157;SDS011;41972;48.774;9.282;2022-07-23T11:15:06;13.20;;;12.40;;
2157;SDS011;41972;48.774;9.282;2022-07-23T11:17:35;7.97;;;7.37;;
2157;SDS011;41972;48.774;9.282;2022-07-23T11:20:23;8.60;;;8.00;;
2157;SDS011;41972;48.774;9.282;2022-07-23T11:27:48;13.33;;;12.43;;
2157;SDS011;41972;48.774;9.282;2022-07-23T11:33:37;11.00;;;10.30;;
2157;SDS011;41972;48.774;9.282;2022-07-23T11:35:41;9.90;;;9.20;;
2157;SDS011;41972;48.774;9.282;2022-07-23T11:40:38;9.60;;;9.00;;
2157;SDS011;41972;48.774;9.282;2022-07-23T11:43:05;9.07;;;8.47;;
2157;SDS011;41972;48.774;9.282;2022-07-23T11:45:51;10.97;;;10.27;;
2157;SDS011;41972;48.774;9.282;2022-07-23T11:48:28;9.57;;;8.77;;
2157;SDS011;41972;48.774;9.282;2022-07-23T11:50:55;9.53;;;8.93;;
2157;SDS011;41972;48.774;9.282;2022-07-23T11:53:25;10.33;;;9.53;;
2157;SDS011;41972;48.774;9.282;2022-07-23T11:55:53;9.10;;;8.50;;
2157;SDS011;41972;48.774;9.282;2022-07-23T11:58:20;9.43;;;8.73;;
2157;SDS011;41972;48.774;9.282;2022-07-23T12:00:46;8.97;;;8.37;;
2157;SDS011;41972;48.774;9.282;2022-07-23T12:03:12;8.63;;;8.03;;
2157;SDS011;41972;48.774;9.282;2022-07-23T12:05:38;9.30;;;8.63;;
2157;SDS011;41972;48.774;9.282;2022-07-23T12:08:09;10.17;;;9.57;;
2157;SDS011;41972;48.774;9.282;2022-07-23T12:10:37;10.50;;;9.90;;
2157;SDS011;41972;48.774;9.282;2022-07-23T12:13:05;9.60;;;9.07;;
2157;SDS011;41972;48.774;9.282;2022-07-23T12:15:38;10.67;;;10.10;;
2157;SDS011;41972;48.774;9.282;2022-07-23T12:18:09;10.13;;;9.37;;
2157;SDS011;41972;48.774;9.282;2022-07-23T12:20:40;8.57;;;7.97;;
2157;SDS011;41972;48.774;9.282;2022-07-23T12:23:08;13.17;;;12.47;;
2157;SDS011;41972;48.774;9.282;2022-07-23T12:25:35;13.73;;;13.03;;
2157;SDS011;41972;48.774;9.282;2022-07-23T12:28:04;17.03;;;16.23;;
2157;SDS011;41972;48.774;9.282;2022-07-23T12:30:34;16.40;;;15.60;;
2157;SDS011;41972;48.774;9.282;2022-07-23T12:33:06;13.73;;;13.03;;
2157;SDS011;41972;48.774;9.282;2022-07-23T12:35:44;20.43;;;19.33;;
2157;SDS011;41972;48.774;9.282;2022-07-23T12:38:12;11.90;;;11.20;;
2157;SDS011;41972;48.774;9.282;2022-07-23T12:40:46;9.33;;;8.73;;
2157;SDS011;41972;48.774;9.282;2022-07-23T12:51:16;9.43;;;8.80;;
2157;SDS011;41972;48.774;9.282;2022-07-23T12:53:46;8.23;;;7.73;;
2157;SDS011;41972;48.774;9.282;2022-07-23T12:56:33;11.17;;;10.37;;
2157;SDS011;41972;48.774;9.282;2022-07-23T13:01:32;9.80;;;9.10;;
2157;SDS011;41972;48.774;9.282;2022-07-23T13:04:21;9.57;;;8.77;;
2157;SDS011;41972;48.774;9.282;2022-07-23T13:06:47;9.37;;;8.67;;
2157;SDS011;41972;48.774;9.282;2022-07-23T13:09:18;12.60;;;11.90;;
2157;SDS011;41972;48.774;9.282;2022-07-23T13:11:46;15.47;;;14.67;;
2157;SDS011;41972;48.774;9.282;2022-07-23T13:14:13;15.53;;;14.63;;
2157;SDS011;41972;48.774;9.282;2022-07-23T13:16:40;15.33;;;14.53;;
2157;SDS011;41972;48.774;9.282;2022-07-23T13:19:06;26.93;;;25.73;;
2157;SDS011;41972;48.774;9.282;2022-07-23T13:21:33;13.83;;;13.00;;
2157;SDS011;41972;48.774;9.282;2022-07-23T13:23:59;14.33;;;13.50;;
2157;SDS011;41972;48.774;9.282;2022-07-23T13:26:25;15.43;;;14.63;;
2157;SDS011;41972;48.774;9.282;2022-07-23T13:28:53;13.53;;;12.60;;
2157;SDS011;41972;48.774;9.282;2022-07-23T13:31:19;13.80;;;12.73;;
2157;SDS011;41972;48.774;9.282;2022-07-23T13:33:44;13.77;;;13.00;;
2157;SDS011;41972;48.774;9.282;2022-07-23T13:36:11;14.83;;;14.03;;
2157;SDS011;41972;48.774;9.282;2022-07-23T13:38:36;11.10;;;10.40;;
2157;SDS011;41972;48.774;9.282;2022-07-23T13:41:02;9.80;;;9.20;;
2157;SDS011;41972;48.774;9.282;2022-07-23T13:43:28;9.70;;;9.10;;
2157;SDS011;41972;48.774;9.282;2022-07-23T13:45:54;13.07;;;12.37;;
2157;SDS011;41972;48.774;9.282;2022-07-23T13:48:20;13.20;;;12.33;;
2157;SDS011;41972;48.774;9.282;2022-07-23T13:50:46;16.47;;;15.50;;
2157;SDS011;41972;48.774;9.282;2022-07-23T13:53:14;15.50;;;14.70;;
2157;SDS011;41972;48.774;9.282;2022-07-23T13:55:41;13.67;;;12.90;;
2157;SDS011;41972;48.774;9.282;2022-07-23T13:58:09;12.57;;;11.87;;
2157;SDS011;41972;48.774;9.282;2022-07-23T14:00:37;16.90;;;16.00;;
2157;SDS011;41972;48.774;9.282;2022-07-23T14:03:04;15.90;;;15.00;;
2157;SDS011;41972;48.774;9.282;2022-07-23T14:05:30;15.47;;;14.70;;
2157;SDS011;41972;48.774;9.282;2022-07-23T14:07:57;15.30;;;14.40;;
2157;SDS011;41972;48.774;9.282;2022-07-23T14:10:23;12.77;;;11.97;;
2157;SDS011;41972;48.774;9.282;2022-07-23T14:12:50;23.13;;;22.13;;
2157;SDS011;41972;48.774;9.282;2022-07-23T14:15:17;21.90;;;20.70;;
2157;SDS011;41972;48.774;9.282;2022-07-23T14:17:44;22.43;;;21.33;;
2157;SDS011;41972;48.774;9.282;2022-07-23T14:20:10;23.47;;;22.27;;
2157;SDS011;41972;48.774;9.282;2022-07-23T14:22:37;20.70;;;19.70;;
2157;SDS011;41972;48.774;9.282;2022-07-23T14:25:03;19.60;;;18.60;;
2157;SDS011;41972;48.774;9.282;2022-07-23T14:27:30;17.10;;;16.13;;
2157;SDS011;41972;48.774;9.282;2022-07-23T14:29:56;15.37;;;14.53;;
2157;SDS011;41972;48.774;9.282;2022-07-23T14:32:22;20.87;;;19.87;;
2157;SDS011;41972;48.774;9.282;2022-07-23T14:34:48;20.70;;;19.70;;
2157;SDS011;41972;48.774;9.282;2022-07-23T14:37:14;21.70;;;20.60;;
2157;SDS011;41972;48.774;9.282;2022-07-23T14:39:40;26.20;;;25.10;;
2157;SDS011;41972;48.774;9.282;2022-07-23T14:42:07;29.80;;;28.27;;
2157;SDS011;41972;48.774;9.282;2022-07-23T14:44:34;22.33;;;21.30;;
2157;SDS011;41972;48.774;9.282;2022-07-23T14:47:00;25.83;;;24.43;;
2157;SDS011;41972;48.774;9.282;2022-07-23T14:49:26;20.53;;;19.43;;
2157;SDS011;41972;48.774;9.282;2022-07-23T14:51:52;28.73;;;27.43;;
2157;SDS011;41972;48.774;9.282;2022-07-23T14:54:17;22.10;;;21.10;;
2157;SDS011;41972;48.774;9.282;2022-07-23T14:56:44;18.53;;;17.23;;
2157;SDS011;41972;48.774;9.282;2022-07-23T14:59:11;15.97;;;15.07;;
2157;SDS011;41972;48.774;9.282;2022-07-23T15:01:37;17.77;;;16.70;;
2157;SDS011;41972;48.774;9.282;2022-07-23T15:04:03;16.80;;;15.80;;
2157;SDS011;41972;48.774;9.282;2022-07-23T15:06:30;21.13;;;20.07;;
2157;SDS011;41972;48.774;9.282;2022-07-23T15:08:56;19.90;;;18.80;;
2157;SDS011;41972;48.774;9.282;2022-07-23T15:11:21;17.00;;;16.10;;
2157;SDS011;41972;48.774;9.282;2022-07-23T15:13:47;16.00;;;15.10;;
2157;SDS011;41972;48.774;9.282;2022-07-23T15:16:13;11.33;;;10.63;;
2157;SDS011;41972;48.774;9.282;2022-07-23T15:18:38;11.20;;;10.40;;
2157;SDS011;41972;48.774;9.282;2022-07-23T15:21:04;11.30;;;10.50;;